createdAt,value
2023-02-02T00:00:47.299Z,0.00
2023-02-02T00:01:48.157Z,0.00
2023-02-02T00:02:49.080Z,0.00
2023-02-02T00:03:49.925Z,0.00
2023-02-02T00:04:50.752Z,0.00
2023-02-02T00:05:51.616Z,0.00
2023-02-02T00:06:52.468Z,0.00
2023-02-02T00:07:53.320Z,0.00
2023-02-02T00:08:54.179Z,0.00
2023-02-02T00:09:55.061Z,0.00
2023-02-02T00:10:55.914Z,0.00
2023-02-02T00:11:56.746Z,0.00
2023-02-02T00:12:57.605Z,0.00
2023-02-02T00:13:58.459Z,0.00
2023-02-02T00:14:59.307Z,0.00
2023-02-02T00:16:00.268Z,0.00
2023-02-02T00:17:01.064Z,0.00
2023-02-02T00:18:01.921Z,0.00
2023-02-02T00:19:02.779Z,0.00
2023-02-02T00:20:03.631Z,0.00
2023-02-02T00:21:04.491Z,0.00
2023-02-02T00:22:05.342Z,0.00
2023-02-02T00:23:06.198Z,0.00
2023-02-02T00:24:07.059Z,0.00
2023-02-02T00:25:07.921Z,0.00
2023-02-02T00:26:08.765Z,0.00
2023-02-02T00:27:09.601Z,0.00
2023-02-02T00:28:10.449Z,0.00
2023-02-02T00:29:11.305Z,0.00
2023-02-02T00:30:12.158Z,0.00
2023-02-02T00:31:13.541Z,0.00
2023-02-02T00:32:13.869Z,0.00
2023-02-02T00:33:14.729Z,0.00
2023-02-02T00:34:15.591Z,0.00
2023-02-02T00:35:16.434Z,0.00
2023-02-02T00:36:17.508Z,0.00
2023-02-02T00:37:17.864Z,0.00
2023-02-02T00:38:18.724Z,0.00
2023-02-02T00:39:19.593Z,0.00
2023-02-02T00:40:20.460Z,0.00
2023-02-02T00:41:21.530Z,0.00
2023-02-02T00:42:21.863Z,0.00
2023-02-02T00:43:22.722Z,0.00
2023-02-02T00:44:23.570Z,0.00
2023-02-02T00:45:24.827Z,0.00
2023-02-02T00:46:25.515Z,0.00
2023-02-02T00:47:25.865Z,0.00
2023-02-02T00:48:26.717Z,0.00
2023-02-02T00:49:27.572Z,0.00
2023-02-02T00:50:28.430Z,0.00
2023-02-02T00:51:29.308Z,0.00
2023-02-02T00:52:30.162Z,0.00
2023-02-02T00:53:31.012Z,0.00
2023-02-02T00:54:31.866Z,0.00
2023-02-02T00:55:32.817Z,0.00
2023-02-02T00:56:33.631Z,0.00
2023-02-02T00:57:34.455Z,0.00
2023-02-02T00:58:35.308Z,0.00
2023-02-02T00:59:36.166Z,0.00
2023-02-02T01:00:37.029Z,0.00
2023-02-02T01:01:37.890Z,0.00
2023-02-02T01:02:38.746Z,0.00
2023-02-02T01:03:39.597Z,0.00
2023-02-02T01:04:40.451Z,0.00
2023-02-02T01:05:41.308Z,0.00
2023-02-02T01:06:42.188Z,0.00
2023-02-02T01:07:43.070Z,0.00
2023-02-02T01:08:43.921Z,0.00
2023-02-02T01:09:44.783Z,0.00
2023-02-02T01:10:45.652Z,0.00
2023-02-02T01:11:46.502Z,0.00
2023-02-02T01:12:47.333Z,0.00
2023-02-02T01:13:48.197Z,0.00
2023-02-02T01:14:49.049Z,0.00
2023-02-02T01:15:49.914Z,0.00
2023-02-02T01:16:50.887Z,0.00
2023-02-02T01:17:51.739Z,0.00
2023-02-02T01:18:52.622Z,0.00
2023-02-02T01:19:53.437Z,0.00
2023-02-02T01:20:54.291Z,0.00
2023-02-02T01:21:55.197Z,0.00
2023-02-02T01:22:56.046Z,0.00
2023-02-02T01:23:56.914Z,0.00
2023-02-02T01:24:57.756Z,0.00
2023-02-02T01:25:58.625Z,0.00
2023-02-02T01:26:59.485Z,0.00
2023-02-02T01:28:00.316Z,0.00
2023-02-02T01:29:01.168Z,0.00
2023-02-02T01:30:02.023Z,0.00
2023-02-02T01:31:02.934Z,0.00
2023-02-02T01:32:03.800Z,0.00
2023-02-02T01:33:04.645Z,0.00
2023-02-02T01:34:05.498Z,0.00
2023-02-02T01:35:06.355Z,0.00
2023-02-02T01:36:07.210Z,0.00
2023-02-02T01:37:08.111Z,0.00
2023-02-02T01:38:08.960Z,0.00
2023-02-02T01:39:09.809Z,0.00
2023-02-02T01:40:10.667Z,0.00
2023-02-02T01:41:11.634Z,0.00
2023-02-02T01:42:12.465Z,0.00
2023-02-02T01:43:13.316Z,0.00
2023-02-02T01:44:14.169Z,0.00
2023-02-02T01:45:15.026Z,0.00
2023-02-02T01:46:15.902Z,0.00
2023-02-02T01:47:17.039Z,0.00
2023-02-02T01:48:17.395Z,0.00
2023-02-02T01:49:18.265Z,0.00
2023-02-02T01:50:19.112Z,0.00
2023-02-02T01:51:19.963Z,0.00
2023-02-02T01:52:21.430Z,0.00
2023-02-02T01:53:21.792Z,0.00
2023-02-02T01:54:22.636Z,0.00
2023-02-02T01:55:23.944Z,0.00
2023-02-02T01:56:24.478Z,0.00
2023-02-02T01:57:25.552Z,0.00
2023-02-02T01:58:25.913Z,0.00
2023-02-02T01:59:26.772Z,0.00
2023-02-02T02:00:27.625Z,0.00
2023-02-02T02:01:28.481Z,0.00
2023-02-02T02:02:29.369Z,0.00
2023-02-02T02:03:30.189Z,0.00
2023-02-02T02:04:31.075Z,0.00
2023-02-02T02:05:31.922Z,0.00
2023-02-02T02:06:32.788Z,0.00
2023-02-02T02:07:33.648Z,0.00
2023-02-02T02:08:34.504Z,0.00
2023-02-02T02:09:35.345Z,0.00
2023-02-02T02:10:36.193Z,0.00
2023-02-02T02:11:37.074Z,0.00
2023-02-02T02:12:37.924Z,0.00
2023-02-02T02:13:38.756Z,0.00
2023-02-02T02:14:39.607Z,0.00
2023-02-02T02:15:40.467Z,0.00
2023-02-02T02:16:41.339Z,0.00
2023-02-02T02:17:42.176Z,0.00
2023-02-02T02:18:43.030Z,0.00
2023-02-02T02:19:43.884Z,0.00
2023-02-02T02:20:44.760Z,0.00
2023-02-02T02:21:45.604Z,0.00
2023-02-02T02:22:46.466Z,0.00
2023-02-02T02:23:47.332Z,0.00
2023-02-02T02:24:48.193Z,0.00
2023-02-02T02:25:49.052Z,0.00
2023-02-02T02:26:50.024Z,0.00
2023-02-02T02:27:50.868Z,0.00
2023-02-02T02:28:51.705Z,0.00
2023-02-02T02:29:52.545Z,0.00
2023-02-02T02:30:53.480Z,0.00
2023-02-02T02:31:54.296Z,0.00
2023-02-02T02:32:55.147Z,0.00
2023-02-02T02:33:55.998Z,0.00
2023-02-02T02:34:56.864Z,0.00
2023-02-02T02:35:57.712Z,0.00
2023-02-02T02:36:58.574Z,0.00
2023-02-02T02:37:59.446Z,0.00
2023-02-02T02:39:00.289Z,0.00
2023-02-02T02:40:01.143Z,0.00
2023-02-02T02:41:01.995Z,0.00
2023-02-02T02:42:02.864Z,0.00
2023-02-02T02:43:03.747Z,0.00
2023-02-02T02:44:04.581Z,0.00
2023-02-02T02:45:05.431Z,0.00
2023-02-02T02:46:06.365Z,0.00
2023-02-02T02:47:07.173Z,0.00
2023-02-02T02:48:08.498Z,0.00
2023-02-02T02:49:08.841Z,0.00
2023-02-02T02:50:09.700Z,0.00
2023-02-02T02:51:10.555Z,0.00
2023-02-02T02:52:11.404Z,0.00
2023-02-02T02:53:12.734Z,0.00
2023-02-02T02:54:13.084Z,0.00
2023-02-02T02:55:13.951Z,0.00
2023-02-02T02:56:14.802Z,0.00
2023-02-02T02:57:15.664Z,0.00
2023-02-02T02:58:17.014Z,0.00
2023-02-02T02:59:17.344Z,0.00
2023-02-02T03:00:18.197Z,0.00
2023-02-02T03:01:19.078Z,0.00
2023-02-02T03:02:19.930Z,0.00
2023-02-02T03:03:20.780Z,0.00
2023-02-02T03:04:21.618Z,0.00
2023-02-02T03:05:22.845Z,0.00
2023-02-02T03:06:23.336Z,0.00
2023-02-02T03:07:24.185Z,0.00
2023-02-02T03:08:25.492Z,0.00
2023-02-02T03:09:25.850Z,0.00
2023-02-02T03:10:26.703Z,0.00
2023-02-02T03:11:27.589Z,0.00
2023-02-02T03:12:28.435Z,0.00
2023-02-02T03:13:29.708Z,0.00
2023-02-02T03:14:29.983Z,0.00
2023-02-02T03:15:30.869Z,0.00
2023-02-02T03:16:31.689Z,0.00
2023-02-02T03:17:32.541Z,0.00
2023-02-02T03:18:33.406Z,0.00
2023-02-02T03:19:34.274Z,0.00
2023-02-02T03:20:35.133Z,0.00
2023-02-02T03:21:35.979Z,0.00
2023-02-02T03:22:36.833Z,0.00
2023-02-02T03:23:37.691Z,0.00
2023-02-02T03:24:38.542Z,0.00
2023-02-02T03:25:39.393Z,0.00
2023-02-02T03:26:40.285Z,0.00
2023-02-02T03:27:41.126Z,0.00
2023-02-02T03:28:42.002Z,0.00
2023-02-02T03:29:42.844Z,0.00
2023-02-02T03:30:43.725Z,0.00
2023-02-02T03:31:44.604Z,0.00
2023-02-02T03:32:45.400Z,0.00
2023-02-02T03:33:46.491Z,0.00
2023-02-02T03:34:46.843Z,0.00
2023-02-02T03:35:47.695Z,0.00
2023-02-02T03:36:48.551Z,0.00
2023-02-02T03:37:49.421Z,0.00
2023-02-02T03:38:50.286Z,0.00
2023-02-02T03:39:52.307Z,0.00
2023-02-02T03:40:51.899Z,0.00
2023-02-02T03:41:52.742Z,0.00
2023-02-02T03:42:53.705Z,0.00
2023-02-02T03:43:55.006Z,0.00
2023-02-02T03:44:55.340Z,0.00
2023-02-02T03:45:56.218Z,0.00
2023-02-02T03:46:57.078Z,0.00
2023-02-02T03:47:57.933Z,0.00
2023-02-02T03:48:58.798Z,0.00
2023-02-02T03:49:59.654Z,0.00
2023-02-02T03:51:00.503Z,0.00
2023-02-02T03:52:01.365Z,0.00
2023-02-02T03:53:02.241Z,0.00
2023-02-02T03:54:04.046Z,0.00
2023-02-02T03:55:03.902Z,0.00
2023-02-02T03:56:04.747Z,0.00
2023-02-02T03:57:05.617Z,0.00
2023-02-02T03:58:06.470Z,0.00
2023-02-02T03:59:07.305Z,0.00
2023-02-02T04:00:08.121Z,0.00
2023-02-02T04:01:08.980Z,0.00
2023-02-02T04:02:09.835Z,0.00
2023-02-02T04:03:10.728Z,0.00
2023-02-02T04:04:11.567Z,0.00
2023-02-02T04:05:12.420Z,0.00
2023-02-02T04:06:13.275Z,0.00
2023-02-02T04:07:14.164Z,0.00
2023-02-02T04:08:15.001Z,0.00
2023-02-02T04:09:15.871Z,0.00
2023-02-02T04:10:16.725Z,0.00
2023-02-02T04:11:17.569Z,0.00
2023-02-02T04:12:18.422Z,0.00
2023-02-02T04:13:19.290Z,0.00
2023-02-02T04:14:20.147Z,0.00
2023-02-02T04:15:20.990Z,0.00
2023-02-02T04:16:21.931Z,0.00
2023-02-02T04:17:22.731Z,0.00
2023-02-02T04:18:23.581Z,0.00
2023-02-02T04:19:24.454Z,0.00
2023-02-02T04:20:25.293Z,0.00
2023-02-02T04:21:26.144Z,0.00
2023-02-02T04:22:26.994Z,0.00
2023-02-02T04:23:27.846Z,0.00
2023-02-02T04:24:28.714Z,0.00
2023-02-02T04:25:29.558Z,0.00
2023-02-02T04:26:30.472Z,0.00
2023-02-02T04:27:31.262Z,0.00
2023-02-02T04:28:32.133Z,0.00
2023-02-02T04:29:32.974Z,0.00
2023-02-02T04:30:33.836Z,0.00
2023-02-02T04:31:34.780Z,0.00
2023-02-02T04:32:35.580Z,0.00
2023-02-02T04:33:36.443Z,0.00
2023-02-02T04:34:37.298Z,0.00
2023-02-02T04:35:38.150Z,0.00
2023-02-02T04:36:38.998Z,0.00
2023-02-02T04:37:39.849Z,0.00
2023-02-02T04:38:40.707Z,0.00
2023-02-02T04:39:41.559Z,0.00
2023-02-02T04:40:42.413Z,0.00
2023-02-02T04:41:43.277Z,0.00
2023-02-02T04:42:44.114Z,0.00
2023-02-02T04:43:44.985Z,0.00
2023-02-02T04:44:45.839Z,0.00
2023-02-02T04:45:46.711Z,0.00
2023-02-02T04:46:47.526Z,0.00
2023-02-02T04:47:48.377Z,0.00
2023-02-02T04:48:49.957Z,0.00
2023-02-02T04:49:49.818Z,0.00
2023-02-02T04:50:50.688Z,0.00
2023-02-02T04:51:51.535Z,0.00
2023-02-02T04:52:52.378Z,0.00
2023-02-02T04:53:53.228Z,0.00
2023-02-02T04:54:54.102Z,0.00
2023-02-02T04:55:54.950Z,0.00
2023-02-02T04:56:55.808Z,0.00
2023-02-02T04:57:56.651Z,0.00
2023-02-02T04:58:57.524Z,0.00
2023-02-02T04:59:58.492Z,0.00
2023-02-02T05:00:58.848Z,0.00
2023-02-02T05:01:59.678Z,0.00
2023-02-02T05:03:00.542Z,0.00
2023-02-02T05:04:01.373Z,0.00
2023-02-02T05:05:02.484Z,0.00
2023-02-02T05:06:02.841Z,0.00
2023-02-02T05:07:03.782Z,0.00
2023-02-02T05:08:04.639Z,0.00
2023-02-02T05:09:05.496Z,0.00
2023-02-02T05:10:06.472Z,0.00
2023-02-02T05:11:07.331Z,0.00
2023-02-02T05:12:08.170Z,0.00
2023-02-02T05:13:09.018Z,0.00
2023-02-02T05:14:09.887Z,0.00
2023-02-02T05:15:10.696Z,0.00
2023-02-02T05:16:11.564Z,0.00
2023-02-02T05:17:12.378Z,0.00
2023-02-02T05:18:13.238Z,0.00
2023-02-02T05:19:14.219Z,0.00
2023-02-02T05:20:15.072Z,0.00
2023-02-02T05:21:15.929Z,0.00
2023-02-02T05:22:16.788Z,0.00
2023-02-02T05:23:17.627Z,0.00
2023-02-02T05:24:18.498Z,0.00
2023-02-02T05:25:19.362Z,0.00
2023-02-02T05:26:20.258Z,0.00
2023-02-02T05:27:21.067Z,0.00
2023-02-02T05:28:21.916Z,0.00
2023-02-02T05:29:22.792Z,0.00
2023-02-02T05:30:23.678Z,0.00
2023-02-02T05:31:24.537Z,0.00
2023-02-02T05:32:25.347Z,0.00
2023-02-02T05:33:26.200Z,0.00
2023-02-02T05:34:27.058Z,0.00
2023-02-02T05:35:27.966Z,0.00
2023-02-02T05:36:28.827Z,0.00
2023-02-02T05:37:29.688Z,0.00
2023-02-02T05:38:30.547Z,0.00
2023-02-02T05:39:31.396Z,0.00
2023-02-02T05:40:32.252Z,0.00
2023-02-02T05:41:33.133Z,0.00
2023-02-02T05:42:33.989Z,0.00
2023-02-02T05:43:34.841Z,0.00
2023-02-02T05:44:35.711Z,0.00
2023-02-02T05:45:36.658Z,0.00
2023-02-02T05:46:37.467Z,0.00
2023-02-02T05:47:38.320Z,0.00
2023-02-02T05:48:39.174Z,0.00
2023-02-02T05:49:40.021Z,0.00
2023-02-02T05:50:40.890Z,0.00
2023-02-02T05:51:41.736Z,0.00
2023-02-02T05:52:42.590Z,0.00
2023-02-02T05:53:43.436Z,0.00
2023-02-02T05:54:44.290Z,0.00
2023-02-02T05:55:45.180Z,0.00
2023-02-02T05:56:46.026Z,0.00
2023-02-02T05:57:46.877Z,0.00
2023-02-02T05:58:47.731Z,0.00
2023-02-02T05:59:48.613Z,0.00
2023-02-02T06:00:49.470Z,0.00
2023-02-02T06:01:50.325Z,0.00
2023-02-02T06:02:51.221Z,0.00
2023-02-02T06:03:52.187Z,0.00
2023-02-02T06:04:52.559Z,0.00
2023-02-02T06:05:53.422Z,0.00
2023-02-02T06:06:54.278Z,0.00
2023-02-02T06:07:55.127Z,0.00
2023-02-02T06:08:55.992Z,0.00
2023-02-02T06:09:56.848Z,0.00
2023-02-02T06:10:57.701Z,0.00
2023-02-02T06:11:58.557Z,0.00
2023-02-02T06:12:59.424Z,0.00
2023-02-02T06:14:00.273Z,0.00
2023-02-02T06:15:01.147Z,0.00
2023-02-02T06:16:01.998Z,0.00
2023-02-02T06:17:02.793Z,0.00
2023-02-02T06:18:03.635Z,0.00
2023-02-02T06:19:04.563Z,0.00
2023-02-02T06:20:05.404Z,0.00
2023-02-02T06:21:06.468Z,0.00
2023-02-02T06:22:06.813Z,0.00
2023-02-02T06:23:07.669Z,0.00
2023-02-02T06:24:08.536Z,0.00
2023-02-02T06:25:09.375Z,0.00
2023-02-02T06:26:10.235Z,0.00
2023-02-02T06:27:11.096Z,0.00
2023-02-02T06:28:11.953Z,0.00
2023-02-02T06:29:12.804Z,0.00
2023-02-02T06:30:13.685Z,0.00
2023-02-02T06:31:14.640Z,0.00
2023-02-02T06:32:15.490Z,0.00
2023-02-02T06:33:16.325Z,0.00
2023-02-02T06:34:17.184Z,0.00
2023-02-02T06:35:18.041Z,0.00
2023-02-02T06:36:18.957Z,0.00
2023-02-02T06:37:19.821Z,0.00
2023-02-02T06:38:20.666Z,0.00
2023-02-02T06:39:21.527Z,0.00
2023-02-02T06:40:22.394Z,0.00
2023-02-02T06:41:23.477Z,0.00
2023-02-02T06:42:23.808Z,0.00
2023-02-02T06:43:24.664Z,0.00
2023-02-02T06:44:25.512Z,0.00
2023-02-02T06:45:26.723Z,0.00
2023-02-02T06:46:27.177Z,0.00
2023-02-02T06:47:27.982Z,0.00
2023-02-02T06:48:28.835Z,0.00
2023-02-02T06:49:29.696Z,0.00
2023-02-02T06:50:30.554Z,0.00
2023-02-02T06:51:31.406Z,0.00
2023-02-02T06:52:32.258Z,0.00
2023-02-02T06:53:33.118Z,0.00
2023-02-02T06:54:33.996Z,0.00
2023-02-02T06:55:34.808Z,0.00
2023-02-02T06:56:35.699Z,0.00
2023-02-02T06:57:36.532Z,0.00
2023-02-02T06:58:37.399Z,0.00
2023-02-02T06:59:38.268Z,0.00
2023-02-02T07:00:39.117Z,0.00
2023-02-02T07:01:40.004Z,0.00
2023-02-02T07:02:40.843Z,0.00
2023-02-02T07:03:41.653Z,0.00
2023-02-02T07:04:42.503Z,0.00
2023-02-02T07:05:43.366Z,0.00
2023-02-02T07:06:44.216Z,0.00
2023-02-02T07:07:45.077Z,0.00
2023-02-02T07:08:45.920Z,0.00
2023-02-02T07:09:47.671Z,0.00
2023-02-02T07:11:14.332Z,0.00
2023-02-02T07:11:49.192Z,0.00
2023-02-02T07:12:49.048Z,0.00
2023-02-02T07:13:49.905Z,0.00
2023-02-02T07:14:50.754Z,0.00
2023-02-02T07:15:51.680Z,0.00
2023-02-02T07:16:52.527Z,0.00
2023-02-02T07:17:53.362Z,0.00
2023-02-02T07:18:54.212Z,0.00
2023-02-02T07:19:55.067Z,0.00
2023-02-02T07:20:55.919Z,0.00
2023-02-02T07:21:56.788Z,0.00
2023-02-02T07:22:57.686Z,0.00
2023-02-02T07:23:58.533Z,0.00
2023-02-02T07:24:59.387Z,0.00
2023-02-02T07:26:00.241Z,0.00
2023-02-02T07:27:01.496Z,0.00
2023-02-02T07:28:01.809Z,0.00
2023-02-02T07:29:02.689Z,0.00
2023-02-02T07:30:03.561Z,0.00
2023-02-02T07:31:04.521Z,0.00
2023-02-02T07:32:05.472Z,0.00
2023-02-02T07:33:06.308Z,0.00
2023-02-02T07:34:07.170Z,0.00
2023-02-02T07:35:08.047Z,0.00
2023-02-02T07:36:08.899Z,0.00
2023-02-02T07:37:09.762Z,5.62
2023-02-02T07:38:10.614Z,5.62
2023-02-02T07:39:11.464Z,5.62
2023-02-02T07:40:12.326Z,5.62
2023-02-02T07:41:13.167Z,5.62
2023-02-02T07:42:14.033Z,5.62
2023-02-02T07:43:14.896Z,5.62
2023-02-02T07:44:15.757Z,5.62
2023-02-02T07:45:35.779Z,5.62
2023-02-02T07:46:18.400Z,5.62
2023-02-02T07:47:18.244Z,5.62
2023-02-02T07:48:19.061Z,11.25
2023-02-02T07:49:19.925Z,11.25
2023-02-02T07:50:20.773Z,11.25
2023-02-02T07:51:21.630Z,11.25
2023-02-02T07:52:22.485Z,11.25
2023-02-02T07:53:23.347Z,11.25
2023-02-02T07:54:24.207Z,11.25
2023-02-02T07:55:25.044Z,16.88
2023-02-02T07:56:25.894Z,11.25
2023-02-02T07:57:27.325Z,16.88
2023-02-02T07:58:27.689Z,16.88
2023-02-02T07:59:30.030Z,16.88
2023-02-02T08:00:29.104Z,16.88
2023-02-02T08:01:29.959Z,16.88
2023-02-02T08:02:30.873Z,22.50
2023-02-02T08:03:31.687Z,22.50
2023-02-02T08:04:32.551Z,22.50
2023-02-02T08:05:33.386Z,22.50
2023-02-02T08:06:34.248Z,22.50
2023-02-02T08:07:35.134Z,22.50
2023-02-02T08:08:35.983Z,22.50
2023-02-02T08:09:36.827Z,16.88
2023-02-02T08:10:37.677Z,16.88
2023-02-02T08:11:38.529Z,22.50
2023-02-02T08:12:39.383Z,28.12
2023-02-02T08:13:40.238Z,28.12
2023-02-02T08:14:41.104Z,28.12
2023-02-02T08:15:41.941Z,33.75
2023-02-02T08:16:42.821Z,33.75
2023-02-02T08:17:43.640Z,28.12
2023-02-02T08:18:44.465Z,22.50
2023-02-02T08:19:45.324Z,22.50
2023-02-02T08:20:46.607Z,22.50
2023-02-02T08:21:46.973Z,22.50
2023-02-02T08:22:47.948Z,22.50
2023-02-02T08:23:48.801Z,22.50
2023-02-02T08:24:49.667Z,33.75
2023-02-02T08:25:50.507Z,39.38
2023-02-02T08:26:51.405Z,39.38
2023-02-02T08:27:52.442Z,39.38
2023-02-02T08:28:52.806Z,39.38
2023-02-02T08:29:53.656Z,39.38
2023-02-02T08:30:54.584Z,28.12
2023-02-02T08:31:55.512Z,28.12
2023-02-02T08:32:56.470Z,28.12
2023-02-02T08:33:57.305Z,28.12
2023-02-02T08:34:58.180Z,22.50
2023-02-02T08:35:59.021Z,22.50
2023-02-02T08:36:59.875Z,22.50
2023-02-02T08:38:00.741Z,22.50
2023-02-02T08:39:03.075Z,22.50
2023-02-02T08:40:02.631Z,22.50
2023-02-02T08:41:03.449Z,33.75
2023-02-02T08:42:04.317Z,39.38
2023-02-02T08:43:05.164Z,39.38
2023-02-02T08:44:05.723Z,33.75
2023-02-02T08:46:01.857Z,33.75
2023-02-02T08:46:08.473Z,33.75
2023-02-02T08:47:07.881Z,39.38
2023-02-02T08:48:12.008Z,28.12
2023-02-02T08:49:08.912Z,28.12
2023-02-02T08:50:09.768Z,39.38
2023-02-02T08:51:10.622Z,28.12
2023-02-02T08:52:11.470Z,33.75
2023-02-02T08:53:12.336Z,33.75
2023-02-02T08:54:13.184Z,22.50
2023-02-02T08:55:14.047Z,28.12
2023-02-02T08:56:14.911Z,28.12
2023-02-02T08:57:15.755Z,33.75
2023-02-02T08:58:17.181Z,33.75
2023-02-02T08:59:17.527Z,45.00
2023-02-02T09:00:18.402Z,56.25
2023-02-02T09:01:19.347Z,56.25
2023-02-02T09:02:20.270Z,61.88
2023-02-02T09:03:21.465Z,61.88
2023-02-02T09:04:21.794Z,50.62
2023-02-02T09:05:22.927Z,45.00
2023-02-02T09:06:23.433Z,33.75
2023-02-02T09:07:24.292Z,39.38
2023-02-02T09:08:25.223Z,39.38
2023-02-02T09:09:26.029Z,28.12
2023-02-02T09:10:26.885Z,28.12
2023-02-02T09:11:27.737Z,28.12
2023-02-02T09:12:28.597Z,33.75
2023-02-02T09:13:29.934Z,33.75
2023-02-02T09:14:30.294Z,33.75
2023-02-02T09:15:31.144Z,39.38
2023-02-02T09:16:32.028Z,39.38
2023-02-02T09:17:32.868Z,33.75
2023-02-02T09:18:33.707Z,45.00
2023-02-02T09:19:34.551Z,50.62
2023-02-02T09:20:35.396Z,50.62
2023-02-02T09:21:36.250Z,45.00
2023-02-02T09:22:37.117Z,39.38
2023-02-02T09:23:38.436Z,50.62
2023-02-02T09:24:38.806Z,67.50
2023-02-02T09:25:39.661Z,73.12
2023-02-02T09:26:40.785Z,73.12
2023-02-02T09:27:41.161Z,73.12
2023-02-02T09:28:42.452Z,67.50
2023-02-02T09:29:42.792Z,78.75
2023-02-02T09:30:43.675Z,73.12
2023-02-02T09:31:44.553Z,67.50
2023-02-02T09:32:45.398Z,56.25
2023-02-02T09:33:46.450Z,56.25
2023-02-02T09:34:46.789Z,67.50
2023-02-02T09:35:47.643Z,78.75
2023-02-02T09:36:48.495Z,67.50
2023-02-02T09:37:49.359Z,84.38
2023-02-02T09:38:50.434Z,78.75
2023-02-02T09:39:50.794Z,78.75
2023-02-02T09:40:51.667Z,84.38
2023-02-02T09:41:52.517Z,84.38
2023-02-02T09:42:53.384Z,84.38
2023-02-02T09:43:54.441Z,84.38
2023-02-02T09:44:54.805Z,84.38
2023-02-02T09:45:55.655Z,90.00
2023-02-02T09:46:56.508Z,90.00
2023-02-02T09:47:57.388Z,84.38
2023-02-02T09:48:58.455Z,67.50
2023-02-02T09:49:58.797Z,61.88
2023-02-02T09:50:59.673Z,56.25
2023-02-02T09:52:00.538Z,56.25
2023-02-02T09:53:01.428Z,56.25
2023-02-02T09:54:02.435Z,67.50
2023-02-02T09:55:03.316Z,56.25
2023-02-02T09:56:04.175Z,84.38
2023-02-02T09:57:05.044Z,90.00
2023-02-02T09:58:05.900Z,84.38
2023-02-02T09:59:19.323Z,73.12
2023-02-02T10:00:08.762Z,61.88
2023-02-02T10:01:08.670Z,67.50
2023-02-02T10:02:09.481Z,73.12
2023-02-02T10:03:10.362Z,73.12
2023-02-02T10:04:11.563Z,61.88
2023-02-02T10:05:11.875Z,50.62
2023-02-02T10:06:12.726Z,45.00
2023-02-02T10:07:13.581Z,50.62
2023-02-02T10:08:18.450Z,50.62
2023-02-02T10:09:16.429Z,61.88
2023-02-02T10:10:17.183Z,61.88
2023-02-02T10:11:16.656Z,61.88
2023-02-02T10:12:17.524Z,78.75
2023-02-02T10:13:18.369Z,78.75
2023-02-02T10:14:19.498Z,78.75
2023-02-02T10:15:19.816Z,67.50
2023-02-02T10:16:20.714Z,61.88
2023-02-02T10:17:21.531Z,67.50
2023-02-02T10:18:22.406Z,67.50
2023-02-02T10:19:23.449Z,78.75
2023-02-02T10:20:24.299Z,78.75
2023-02-02T10:21:24.355Z,78.75
2023-02-02T10:22:25.258Z,73.12
2023-02-02T10:23:26.160Z,73.12
2023-02-02T10:24:27.430Z,61.88
2023-02-02T10:25:27.785Z,73.12
2023-02-02T10:26:28.660Z,61.88
2023-02-02T10:27:29.507Z,73.12
2023-02-02T10:28:30.381Z,56.25
2023-02-02T10:29:47.805Z,61.88
2023-02-02T10:30:33.239Z,56.25
2023-02-02T10:31:33.225Z,61.88
2023-02-02T10:32:33.667Z,50.62
2023-02-02T10:33:34.534Z,56.25
2023-02-02T10:34:35.442Z,50.62
2023-02-02T10:35:36.279Z,61.88
2023-02-02T10:36:37.138Z,61.88
2023-02-02T10:37:38.055Z,50.62
2023-02-02T10:38:38.874Z,39.38
2023-02-02T10:39:39.788Z,45.00
2023-02-02T10:40:40.580Z,33.75
2023-02-02T10:41:41.475Z,33.75
2023-02-02T10:42:42.293Z,33.75
2023-02-02T10:43:43.161Z,45.00
2023-02-02T10:44:44.030Z,39.38
2023-02-02T10:45:44.878Z,39.38
2023-02-02T10:46:45.733Z,39.38
2023-02-02T10:47:46.592Z,39.38
2023-02-02T10:48:47.466Z,39.38
2023-02-02T10:49:51.799Z,39.38
2023-02-02T10:50:50.021Z,45.00
2023-02-02T10:51:49.865Z,39.38
2023-02-02T10:52:50.745Z,45.00
2023-02-02T10:53:51.583Z,56.25
2023-02-02T10:54:58.346Z,45.00
2023-02-02T10:55:54.187Z,45.00
2023-02-02T10:56:54.040Z,45.00
2023-02-02T10:57:54.936Z,45.00
2023-02-02T10:58:55.823Z,45.00
2023-02-02T10:59:56.712Z,45.00
2023-02-02T11:00:57.576Z,45.00
2023-02-02T11:02:03.718Z,39.38
2023-02-02T11:03:00.302Z,45.00
2023-02-02T11:04:00.128Z,39.38
2023-02-02T11:05:01.452Z,39.38
2023-02-02T11:06:01.785Z,45.00
2023-02-02T11:07:02.663Z,50.62
2023-02-02T11:08:03.504Z,50.62
2023-02-02T11:09:04.356Z,50.62
2023-02-02T11:10:05.431Z,50.62
2023-02-02T11:11:05.778Z,50.62
2023-02-02T11:12:06.634Z,56.25
2023-02-02T11:13:07.541Z,56.25
2023-02-02T11:14:08.442Z,61.88
2023-02-02T11:15:09.264Z,67.50
2023-02-02T11:16:10.209Z,73.12
2023-02-02T11:17:11.047Z,61.88
2023-02-02T11:18:11.902Z,56.25
2023-02-02T11:19:12.786Z,61.88
2023-02-02T11:20:13.595Z,56.25
2023-02-02T11:21:14.426Z,61.88
2023-02-02T11:22:15.273Z,61.88
2023-02-02T11:23:16.145Z,67.50
2023-02-02T11:24:16.983Z,67.50
2023-02-02T11:25:17.843Z,84.38
2023-02-02T11:26:18.740Z,106.88
2023-02-02T11:27:19.581Z,78.75
2023-02-02T11:28:20.462Z,78.75
2023-02-02T11:29:21.289Z,78.75
2023-02-02T11:30:22.680Z,78.75
2023-02-02T11:31:23.178Z,84.38
2023-02-02T11:32:24.018Z,84.38
2023-02-02T11:33:24.870Z,73.12
2023-02-02T11:34:25.753Z,78.75
2023-02-02T11:35:26.952Z,84.38
2023-02-02T11:36:27.298Z,67.50
2023-02-02T11:37:28.126Z,67.50
2023-02-02T11:38:28.992Z,61.88
2023-02-02T11:39:29.835Z,56.25
2023-02-02T11:40:30.704Z,61.88
2023-02-02T11:41:31.546Z,73.12
2023-02-02T11:42:32.413Z,73.12
2023-02-02T11:43:33.269Z,78.75
2023-02-02T11:44:34.123Z,73.12
2023-02-02T11:45:34.984Z,61.88
2023-02-02T11:46:35.872Z,50.62
2023-02-02T11:47:36.688Z,45.00
2023-02-02T11:48:37.570Z,45.00
2023-02-02T11:49:38.483Z,50.62
2023-02-02T11:50:39.414Z,61.88
2023-02-02T11:51:40.229Z,61.88
2023-02-02T11:52:41.087Z,45.00
2023-02-02T11:53:41.970Z,45.00
2023-02-02T11:54:42.888Z,45.00
2023-02-02T11:55:43.755Z,50.62
2023-02-02T11:56:44.603Z,56.25
2023-02-02T11:57:45.464Z,56.25
2023-02-02T11:58:46.347Z,61.88
2023-02-02T11:59:47.179Z,50.62
2023-02-02T12:00:48.454Z,56.25
2023-02-02T12:01:48.818Z,56.25
2023-02-02T12:02:49.666Z,50.62
2023-02-02T12:03:50.593Z,45.00
2023-02-02T12:04:51.434Z,45.00
2023-02-02T12:05:52.302Z,39.38
2023-02-02T12:06:53.134Z,39.38
2023-02-02T12:07:53.974Z,39.38
2023-02-02T12:08:54.825Z,39.38
2023-02-02T12:09:55.709Z,39.38
2023-02-02T12:10:56.912Z,39.38
2023-02-02T12:11:57.287Z,39.38
2023-02-02T12:12:58.137Z,33.75
2023-02-02T12:13:58.987Z,33.75
2023-02-02T12:14:59.856Z,33.75
2023-02-02T12:16:00.974Z,33.75
2023-02-02T12:17:01.279Z,33.75
2023-02-02T12:18:02.122Z,33.75
2023-02-02T12:19:02.972Z,33.75
2023-02-02T12:20:03.901Z,33.75
2023-02-02T12:21:04.942Z,33.75
2023-02-02T12:22:05.299Z,33.75
2023-02-02T12:23:06.235Z,28.12
2023-02-02T12:24:07.077Z,28.12
2023-02-02T12:25:07.921Z,33.75
2023-02-02T12:26:08.924Z,33.75
2023-02-02T12:27:09.272Z,33.75
2023-02-02T12:28:11.564Z,33.75
2023-02-02T12:29:11.029Z,28.12
2023-02-02T12:30:11.897Z,28.12
2023-02-02T12:31:12.896Z,28.12
2023-02-02T12:32:13.288Z,28.12
2023-02-02T12:33:14.146Z,28.12
2023-02-02T12:34:14.963Z,28.12
2023-02-02T12:35:15.830Z,28.12
2023-02-02T12:36:16.647Z,28.12
2023-02-02T12:37:17.475Z,33.75
2023-02-02T12:38:18.326Z,33.75
2023-02-02T12:39:19.183Z,33.75
2023-02-02T12:40:20.075Z,28.12
2023-02-02T12:41:20.940Z,28.12
2023-02-02T12:42:21.787Z,28.12
2023-02-02T12:43:22.345Z,28.12
2023-02-02T12:44:23.190Z,33.75
2023-02-02T12:45:24.047Z,33.75
2023-02-02T12:46:24.905Z,33.75
2023-02-02T12:47:25.769Z,39.38
2023-02-02T12:48:26.705Z,45.00
2023-02-02T12:49:27.573Z,45.00
2023-02-02T12:50:28.600Z,45.00
2023-02-02T12:51:28.955Z,56.25
2023-02-02T12:52:29.805Z,50.62
2023-02-02T12:53:30.664Z,50.62
2023-02-02T12:54:34.998Z,45.00
2023-02-02T12:55:33.253Z,45.00
2023-02-02T12:56:33.410Z,39.38
2023-02-02T12:57:33.754Z,39.38
2023-02-02T12:58:34.647Z,33.75
2023-02-02T12:59:35.485Z,28.12
2023-02-02T13:00:36.340Z,28.12
2023-02-02T13:01:37.210Z,33.75
2023-02-02T13:02:38.091Z,33.75
2023-02-02T13:03:38.953Z,33.75
2023-02-02T13:04:39.821Z,33.75
2023-02-02T13:05:40.695Z,33.75
2023-02-02T13:06:41.967Z,33.75
2023-02-02T13:07:42.272Z,28.12
2023-02-02T13:08:43.141Z,33.75
2023-02-02T13:09:43.997Z,33.75
2023-02-02T13:10:44.843Z,33.75
2023-02-02T13:11:45.903Z,33.75
2023-02-02T13:12:46.306Z,33.75
2023-02-02T13:13:47.129Z,39.38
2023-02-02T13:14:48.012Z,39.38
2023-02-02T13:15:48.860Z,39.38
2023-02-02T13:16:49.811Z,45.00
2023-02-02T13:17:50.656Z,45.00
2023-02-02T13:18:51.517Z,45.00